Flight Track Log - Related Links

Times and Time Zones

All times are in EDT time to prevent confusion due to time zone crossing. See the DLA1905 flight status page for this flight to view local times or setup timezone preferences in your user account.

Time Position Orientation Groundspeed Altitude Reporting Facility
EDT Latitude Longitude Course Direction KTS MPH feet Rate Location/Type
Wed 01:16:00 AM 45.9847 8.6164 40° Northeast  Level Estimated
Wed 01:17:00 AM 46.0556 8.7056 41° Northeast  Level Estimated
Wed 01:18:00 AM 46.1264 8.7951 41° Northeast  Level Estimated
Wed 01:19:00 AM 46.1971 8.8848 41° Northeast  Level Estimated
Wed 01:20:00 AM 46.2678 8.9747 41° Northeast  Level Estimated
Wed 01:21:00 AM 46.3383 9.0649 41° Northeast  Level Estimated
Wed 01:22:00 AM 46.4089 9.1553 41° Northeast  Level Estimated
Wed 01:23:00 AM 46.4793 9.2459 42° Northeast  Level Estimated
Wed 01:24:00 AM 46.5497 9.3368 42° Northeast  Level Estimated
Wed 01:25:00 AM 46.6200 9.4279 42° Northeast  Level Estimated
Wed 01:26:00 AM 46.6902 9.5192 42° Northeast  Level Estimated
Wed 01:27:00 AM 46.7603 9.6108 42° Northeast  Level Estimated
Wed 01:28:00 AM 46.8304 9.7026 42° Northeast  Level Estimated
Wed 01:29:00 AM 46.9004 9.7946 42° Northeast  Level Estimated
Wed 01:30:00 AM 46.9703 9.8869 42° Northeast  Level Estimated
Wed 01:31:00 AM 47.0402 9.9794 42° Northeast  Level Estimated
Wed 01:32:00 AM 47.1100 10.0722 42° Northeast  Level Estimated
Wed 01:33:00 AM 47.1797 10.1652 42° Northeast  Level Estimated
Wed 01:34:00 AM 47.2493 10.2585 42° Northeast  Level Estimated
Wed 01:35:00 AM 47.3189 10.3520 42° Northeast  Level Estimated
Wed 01:36:00 AM 47.3884 10.4458 42° Northeast  Level Estimated
Wed 01:37:00 AM 47.4578 10.5398 42° Northeast  Level Estimated
Wed 01:38:00 AM 47.5271 10.6340 43° Northeast  Level Estimated
Wed 01:39:00 AM 47.5963 10.7285 43° Northeast  Level Estimated
Wed 01:40:00 AM 47.6655 10.8232 43° Northeast  Level Estimated
Wed 01:41:00 AM 47.7346 10.9183 43° Northeast  Level Estimated
Wed 01:42:00 AM 47.8036 11.0135 43° Northeast  Level Estimated
Wed 01:43:00 AM 47.8725 11.1090 43° Northeast  Level Estimated
Wed 01:44:00 AM 47.9414 11.2048 43° Northeast  Level Estimated
Wed 01:45:00 AM 48.0102 11.3008 43° Northeast  Level Estimated
Wed 01:46:00 AM 48.0789 11.3971 43° Northeast  Level Estimated
Wed 01:47:00 AM 48.1475 11.4936 43° Northeast  Level Estimated
Wed 01:48:00 AM 48.2160 11.5904 43° Northeast  Level Estimated
Wed 01:49:00 AM 48.2845 11.6874 43° Northeast  Level Estimated
Wed 01:50:00 AM 48.3528 11.7847 43° Northeast  Level Estimated
Wed 01:51:00 AM 48.3538 11.7861 43° Northeast  Level Estimated
Wed 01:52:00 AM 48.3538 11.7861 318° Northwest  Level Estimated
Wed 01:53:00 AM 48.3538 11.7861 318° Northwest  Level Estimated
Wed 01:54:00 AM 48.3538 11.7861 318° Northwest  Level Estimated
Wed 01:55:00 AM 48.3538 11.7861 318° Northwest  Level Estimated
Wed 01:56:00 AM 48.3538 11.7861 318° Northwest  Level Estimated
Wed 01:57:00 AM 48.3538 11.7861 318° Northwest  Level Estimated
Wed 01:58:00 AM 48.3538 11.7861 318° Northwest  Level Estimated
Wed 01:59:00 AM 48.3538 11.7861 318° Northwest  Level Estimated
Wed 02:00:00 AM 48.3538 11.7861 318° Northwest  Level Estimated
Wed 02:01:00 AM 48.3538 11.7861 318° Northwest  Level Estimated
Wed 02:02:00 AM 48.3538 11.7861 318° Northwest  Level Estimated
Wed 02:03:00 AM 48.3538 11.7861 318° Northwest  Level Estimated
Wed 02:04:00 AM 48.3538 11.7861 318° Northwest  Level Estimated
Wed 02:05:00 AM 48.3538 11.7861 318° Northwest  Level Estimated
Wed 02:06:00 AM 48.3538 11.7861 318° Northwest  Level Estimated
Wed 02:07:00 AM 48.3538 11.7861 318° Northwest  Level Estimated
Wed 02:08:00 AM 48.3538 11.7861 318° Northwest  Level Estimated
Wed 02:09:00 AM 48.3538 11.7861 318° Northwest  Level Estimated
Wed 02:10:00 AM 48.3538 11.7861 318° Northwest  Level Estimated
Wed 02:11:00 AM 48.3538 11.7861 318° Northwest  Level Estimated
Wed 02:12:00 AM 48.3538 11.7861 318° Northwest  Level Estimated
Wed 02:13:00 AM 48.3538 11.7861 318° Northwest  Level Estimated
Wed 02:14:00 AM 48.3538 11.7861 318° Northwest  Level Estimated

Login

Don't have an account? Register now (free) for customized features, flight alerts, and more!